sensor_id;sensor_type;location;lat;lon;timestamp;temperature;humidity
21169;DHT22;10742;51.816;8.662;2023-04-24T00:00:11;16.80;80.90
21169;DHT22;10742;51.816;8.662;2023-04-24T00:03:16;16.80;80.90
21169;DHT22;10742;51.816;8.662;2023-04-24T00:06:19;16.80;80.90
21169;DHT22;10742;51.816;8.662;2023-04-24T00:09:22;16.80;80.90
21169;DHT22;10742;51.816;8.662;2023-04-24T00:12:25;16.80;80.90
21169;DHT22;10742;51.816;8.662;2023-04-24T00:15:27;16.70;80.70
21169;DHT22;10742;51.816;8.662;2023-04-24T00:18:30;16.70;80.60
21169;DHT22;10742;51.816;8.662;2023-04-24T00:21:32;16.70;80.50
21169;DHT22;10742;51.816;8.662;2023-04-24T00:24:35;16.70;80.40
21169;DHT22;10742;51.816;8.662;2023-04-24T00:27:37;16.60;80.30
21169;DHT22;10742;51.816;8.662;2023-04-24T00:30:41;16.60;80.30
21169;DHT22;10742;51.816;8.662;2023-04-24T00:33:43;16.60;80.30
21169;DHT22;10742;51.816;8.662;2023-04-24T00:36:45;16.50;80.20
21169;DHT22;10742;51.816;8.662;2023-04-24T00:39:48;16.50;80.30
21169;DHT22;10742;51.816;8.662;2023-04-24T00:42:50;16.40;80.20
21169;DHT22;10742;51.816;8.662;2023-04-24T00:45:53;16.40;80.30
21169;DHT22;10742;51.816;8.662;2023-04-24T00:48:56;16.40;80.50
21169;DHT22;10742;51.816;8.662;2023-04-24T00:52:01;16.30;80.50
21169;DHT22;10742;51.816;8.662;2023-04-24T00:55:04;16.30;80.70
21169;DHT22;10742;51.816;8.662;2023-04-24T00:58:07;16.30;80.80
21169;DHT22;10742;51.816;8.662;2023-04-24T01:01:10;16.20;80.80
21169;DHT22;10742;51.816;8.662;2023-04-24T01:04:14;16.20;80.80
21169;DHT22;10742;51.816;8.662;2023-04-24T01:07:20;16.20;80.90
21169;DHT22;10742;51.816;8.662;2023-04-24T01:10:27;16.10;80.90
21169;DHT22;10742;51.816;8.662;2023-04-24T01:13:32;16.00;80.80
21169;DHT22;10742;51.816;8.662;2023-04-24T01:16:35;16.00;80.70
21169;DHT22;10742;51.816;8.662;2023-04-24T01:19:38;15.90;80.80
21169;DHT22;10742;51.816;8.662;2023-04-24T01:22:40;15.90;80.90
21169;DHT22;10742;51.816;8.662;2023-04-24T01:25:44;15.90;81.10
21169;DHT22;10742;51.816;8.662;2023-04-24T01:28:46;15.80;81.40
21169;DHT22;10742;51.816;8.662;2023-04-24T01:31:50;15.80;81.50
21169;DHT22;10742;51.816;8.662;2023-04-24T01:34:53;15.80;81.60
21169;DHT22;10742;51.816;8.662;2023-04-24T01:37:56;15.70;82.40
21169;DHT22;10742;51.816;8.662;2023-04-24T01:40:59;15.70;81.60
21169;DHT22;10742;51.816;8.662;2023-04-24T01:44:02;15.70;81.60
21169;DHT22;10742;51.816;8.662;2023-04-24T01:47:05;15.60;81.60
21169;DHT22;10742;51.816;8.662;2023-04-24T01:50:08;15.60;81.80
21169;DHT22;10742;51.816;8.662;2023-04-24T01:53:13;15.60;82.00
21169;DHT22;10742;51.816;8.662;2023-04-24T01:56:16;15.60;82.00
21169;DHT22;10742;51.816;8.662;2023-04-24T01:59:20;15.60;82.10
21169;DHT22;10742;51.816;8.662;2023-04-24T02:02:24;15.60;82.30
21169;DHT22;10742;51.816;8.662;2023-04-24T02:05:31;15.60;82.30
21169;DHT22;10742;51.816;8.662;2023-04-24T02:08:34;15.60;82.30
21169;DHT22;10742;51.816;8.662;2023-04-24T02:11:36;15.60;82.40
21169;DHT22;10742;51.816;8.662;2023-04-24T02:14:39;15.60;82.50
21169;DHT22;10742;51.816;8.662;2023-04-24T02:17:41;15.60;82.60
21169;DHT22;10742;51.816;8.662;2023-04-24T02:20:44;15.60;82.70
21169;DHT22;10742;51.816;8.662;2023-04-24T02:23:46;15.60;82.60
21169;DHT22;10742;51.816;8.662;2023-04-24T02:26:49;15.70;82.70
21169;DHT22;10742;51.816;8.662;2023-04-24T02:29:51;15.70;82.70
21169;DHT22;10742;51.816;8.662;2023-04-24T02:32:54;15.70;82.70
21169;DHT22;10742;51.816;8.662;2023-04-24T02:35:56;15.70;82.60
21169;DHT22;10742;51.816;8.662;2023-04-24T02:38:58;15.70;82.40
21169;DHT22;10742;51.816;8.662;2023-04-24T02:42:01;15.70;82.40
21169;DHT22;10742;51.816;8.662;2023-04-24T02:45:05;15.70;82.40
21169;DHT22;10742;51.816;8.662;2023-04-24T02:48:08;15.70;82.50
21169;DHT22;10742;51.816;8.662;2023-04-24T02:51:10;15.60;82.30
21169;DHT22;10742;51.816;8.662;2023-04-24T02:54:13;15.70;82.40
21169;DHT22;10742;51.816;8.662;2023-04-24T02:57:16;15.80;82.40
21169;DHT22;10742;51.816;8.662;2023-04-24T03:00:18;15.70;82.30
21169;DHT22;10742;51.816;8.662;2023-04-24T03:03:21;15.80;82.30
21169;DHT22;10742;51.816;8.662;2023-04-24T03:06:24;15.80;82.20
21169;DHT22;10742;51.816;8.662;2023-04-24T03:09:26;15.80;82.10
21169;DHT22;10742;51.816;8.662;2023-04-24T03:12:29;15.80;82.00
21169;DHT22;10742;51.816;8.662;2023-04-24T03:15:31;15.80;82.00
21169;DHT22;10742;51.816;8.662;2023-04-24T03:18:34;15.80;81.90
21169;DHT22;10742;51.816;8.662;2023-04-24T03:21:38;15.70;81.80
21169;DHT22;10742;51.816;8.662;2023-04-24T03:24:43;15.80;82.10
21169;DHT22;10742;51.816;8.662;2023-04-24T03:27:46;15.70;82.00
21169;DHT22;10742;51.816;8.662;2023-04-24T03:31:09;15.70;82.10
21169;DHT22;10742;51.816;8.662;2023-04-24T03:34:12;15.70;82.10
21169;DHT22;10742;51.816;8.662;2023-04-24T03:37:15;15.70;82.30
21169;DHT22;10742;51.816;8.662;2023-04-24T03:40:25;15.70;82.30
21169;DHT22;10742;51.816;8.662;2023-04-24T03:43:27;15.70;82.20
21169;DHT22;10742;51.816;8.662;2023-04-24T03:46:33;15.70;82.30
21169;DHT22;10742;51.816;8.662;2023-04-24T03:49:36;15.70;82.40
21169;DHT22;10742;51.816;8.662;2023-04-24T03:52:39;15.70;82.40
21169;DHT22;10742;51.816;8.662;2023-04-24T03:55:43;15.70;82.50
21169;DHT22;10742;51.816;8.662;2023-04-24T03:58:45;15.70;82.60
21169;DHT22;10742;51.816;8.662;2023-04-24T04:01:48;15.70;82.70
21169;DHT22;10742;51.816;8.662;2023-04-24T04:04:52;15.70;82.90
21169;DHT22;10742;51.816;8.662;2023-04-24T04:07:54;15.70;83.00
21169;DHT22;10742;51.816;8.662;2023-04-24T04:10:57;15.70;83.00
21169;DHT22;10742;51.816;8.662;2023-04-24T04:14:00;15.70;83.20
21169;DHT22;10742;51.816;8.662;2023-04-24T04:17:03;15.70;83.30
21169;DHT22;10742;51.816;8.662;2023-04-24T04:20:06;15.70;83.50
21169;DHT22;10742;51.816;8.662;2023-04-24T04:23:14;15.70;83.60
21169;DHT22;10742;51.816;8.662;2023-04-24T04:26:27;15.70;83.60
21169;DHT22;10742;51.816;8.662;2023-04-24T04:29:36;15.70;83.90
21169;DHT22;10742;51.816;8.662;2023-04-24T04:32:42;15.70;83.90
21169;DHT22;10742;51.816;8.662;2023-04-24T04:36:04;15.70;84.10
21169;DHT22;10742;51.816;8.662;2023-04-24T04:39:27;15.60;84.20
21169;DHT22;10742;51.816;8.662;2023-04-24T04:42:58;15.60;84.40
21169;DHT22;10742;51.816;8.662;2023-04-24T04:46:29;15.60;84.50
21169;DHT22;10742;51.816;8.662;2023-04-24T04:50:01;15.60;84.80
21169;DHT22;10742;51.816;8.662;2023-04-24T04:53:25;15.50;84.80
21169;DHT22;10742;51.816;8.662;2023-04-24T04:56:28;15.50;84.80
21169;DHT22;10742;51.816;8.662;2023-04-24T04:59:33;15.50;85.00
21169;DHT22;10742;51.816;8.662;2023-04-24T05:02:40;15.50;85.10
21169;DHT22;10742;51.816;8.662;2023-04-24T05:05:43;15.50;84.80
21169;DHT22;10742;51.816;8.662;2023-04-24T05:08:48;15.50;85.10
21169;DHT22;10742;51.816;8.662;2023-04-24T05:12:17;15.40;83.80
21169;DHT22;10742;51.816;8.662;2023-04-24T05:15:25;15.40;83.30
21169;DHT22;10742;51.816;8.662;2023-04-24T05:18:28;15.30;83.10
21169;DHT22;10742;51.816;8.662;2023-04-24T05:21:30;15.30;83.20
21169;DHT22;10742;51.816;8.662;2023-04-24T05:24:42;15.20;83.10
21169;DHT22;10742;51.816;8.662;2023-04-24T05:28:07;15.20;82.90
21169;DHT22;10742;51.816;8.662;2023-04-24T05:31:09;15.20;82.90
21169;DHT22;10742;51.816;8.662;2023-04-24T05:34:12;15.10;83.00
21169;DHT22;10742;51.816;8.662;2023-04-24T05:37:18;15.10;82.90
21169;DHT22;10742;51.816;8.662;2023-04-24T05:40:21;15.00;83.00
21169;DHT22;10742;51.816;8.662;2023-04-24T05:43:24;15.00;82.90
21169;DHT22;10742;51.816;8.662;2023-04-24T05:46:27;15.00;83.00
21169;DHT22;10742;51.816;8.662;2023-04-24T05:49:31;15.00;83.10
21169;DHT22;10742;51.816;8.662;2023-04-24T05:52:33;15.00;83.30
21169;DHT22;10742;51.816;8.662;2023-04-24T05:55:40;15.00;83.50
21169;DHT22;10742;51.816;8.662;2023-04-24T05:58:43;15.00;83.60
21169;DHT22;10742;51.816;8.662;2023-04-24T06:01:45;15.10;83.60
21169;DHT22;10742;51.816;8.662;2023-04-24T06:04:51;15.10;83.70
21169;DHT22;10742;51.816;8.662;2023-04-24T06:07:54;15.20;83.60
21169;DHT22;10742;51.816;8.662;2023-04-24T06:10:58;15.30;83.50
21169;DHT22;10742;51.816;8.662;2023-04-24T06:14:01;15.30;83.20
21169;DHT22;10742;51.816;8.662;2023-04-24T06:17:12;15.40;83.20
21169;DHT22;10742;51.816;8.662;2023-04-24T06:20:17;15.40;82.90
21169;DHT22;10742;51.816;8.662;2023-04-24T06:23:20;15.50;82.90
21169;DHT22;10742;51.816;8.662;2023-04-24T06:26:22;15.50;83.20
21169;DHT22;10742;51.816;8.662;2023-04-24T06:29:27;15.60;83.00
21169;DHT22;10742;51.816;8.662;2023-04-24T06:32:29;15.70;82.80
21169;DHT22;10742;51.816;8.662;2023-04-24T06:35:34;15.70;82.30
21169;DHT22;10742;51.816;8.662;2023-04-24T06:38:37;15.80;81.90
21169;DHT22;10742;51.816;8.662;2023-04-24T06:41:40;15.80;81.50
21169;DHT22;10742;51.816;8.662;2023-04-24T06:44:50;15.80;81.30
21169;DHT22;10742;51.816;8.662;2023-04-24T06:47:52;15.80;81.10
21169;DHT22;10742;51.816;8.662;2023-04-24T06:50:54;15.80;80.90
21169;DHT22;10742;51.816;8.662;2023-04-24T06:53:57;15.80;80.80
21169;DHT22;10742;51.816;8.662;2023-04-24T06:57:00;15.80;81.50
21169;DHT22;10742;51.816;8.662;2023-04-24T07:00:06;15.70;80.50
21169;DHT22;10742;51.816;8.662;2023-04-24T07:03:09;15.70;80.60
21169;DHT22;10742;51.816;8.662;2023-04-24T07:06:12;15.70;80.30
21169;DHT22;10742;51.816;8.662;2023-04-24T07:09:15;15.70;79.90
21169;DHT22;10742;51.816;8.662;2023-04-24T07:12:21;15.70;80.00
21169;DHT22;10742;51.816;8.662;2023-04-24T07:15:23;15.60;79.90
21169;DHT22;10742;51.816;8.662;2023-04-24T07:18:45;15.60;79.70
21169;DHT22;10742;51.816;8.662;2023-04-24T07:22:06;15.60;79.60
21169;DHT22;10742;51.816;8.662;2023-04-24T07:25:28;15.50;79.70
21169;DHT22;10742;51.816;8.662;2023-04-24T07:28:49;15.50;79.90
21169;DHT22;10742;51.816;8.662;2023-04-24T07:32:10;15.50;79.80
21169;DHT22;10742;51.816;8.662;2023-04-24T07:35:32;15.50;79.90
21169;DHT22;10742;51.816;8.662;2023-04-24T07:38:54;15.50;79.60
21169;DHT22;10742;51.816;8.662;2023-04-24T07:42:16;15.50;79.60
21169;DHT22;10742;51.816;8.662;2023-04-24T07:45:37;15.60;79.60
21169;DHT22;10742;51.816;8.662;2023-04-24T07:48:58;15.50;79.40
21169;DHT22;10742;51.816;8.662;2023-04-24T07:52:29;15.50;79.60
21169;DHT22;10742;51.816;8.662;2023-04-24T07:55:51;15.50;79.40
21169;DHT22;10742;51.816;8.662;2023-04-24T07:59:12;15.50;79.30
21169;DHT22;10742;51.816;8.662;2023-04-24T08:02:15;15.50;79.50
21169;DHT22;10742;51.816;8.662;2023-04-24T08:05:17;15.50;79.60
21169;DHT22;10742;51.816;8.662;2023-04-24T08:08:22;15.50;79.50
21169;DHT22;10742;51.816;8.662;2023-04-24T08:11:25;15.50;79.40
21169;DHT22;10742;51.816;8.662;2023-04-24T08:14:28;15.50;79.60
21169;DHT22;10742;51.816;8.662;2023-04-24T08:17:30;15.50;79.60
21169;DHT22;10742;51.816;8.662;2023-04-24T08:20:35;15.60;79.60
21169;DHT22;10742;51.816;8.662;2023-04-24T08:23:38;15.60;79.40
21169;DHT22;10742;51.816;8.662;2023-04-24T08:26:41;15.60;80.10
21169;DHT22;10742;51.816;8.662;2023-04-24T08:29:43;15.60;79.30
21169;DHT22;10742;51.816;8.662;2023-04-24T08:32:46;15.60;79.30
21169;DHT22;10742;51.816;8.662;2023-04-24T08:35:50;15.60;79.30
21169;DHT22;10742;51.816;8.662;2023-04-24T08:38:52;15.70;79.20
21169;DHT22;10742;51.816;8.662;2023-04-24T08:41:55;15.70;79.10
21169;DHT22;10742;51.816;8.662;2023-04-24T08:44:58;15.70;79.40
21169;DHT22;10742;51.816;8.662;2023-04-24T08:48:01;15.70;79.70
21169;DHT22;10742;51.816;8.662;2023-04-24T08:51:07;15.70;79.70
21169;DHT22;10742;51.816;8.662;2023-04-24T08:54:12;15.70;79.90
21169;DHT22;10742;51.816;8.662;2023-04-24T08:57:15;15.70;80.00
21169;DHT22;10742;51.816;8.662;2023-04-24T09:00:20;15.70;80.20
21169;DHT22;10742;51.816;8.662;2023-04-24T09:03:23;15.70;79.90
21169;DHT22;10742;51.816;8.662;2023-04-24T09:06:26;15.80;80.00
21169;DHT22;10742;51.816;8.662;2023-04-24T09:09:30;15.80;80.00
21169;DHT22;10742;51.816;8.662;2023-04-24T09:12:34;15.80;79.90
21169;DHT22;10742;51.816;8.662;2023-04-24T09:15:38;15.80;79.60
21169;DHT22;10742;51.816;8.662;2023-04-24T09:18:40;15.90;79.40
21169;DHT22;10742;51.816;8.662;2023-04-24T09:21:46;15.90;79.30
21169;DHT22;10742;51.816;8.662;2023-04-24T09:25:01;15.80;78.80
21169;DHT22;10742;51.816;8.662;2023-04-24T09:28:05;15.80;78.50
21169;DHT22;10742;51.816;8.662;2023-04-24T09:31:19;15.80;79.00
21169;DHT22;10742;51.816;8.662;2023-04-24T09:34:27;15.80;79.10
21169;DHT22;10742;51.816;8.662;2023-04-24T09:37:30;15.80;79.40
21169;DHT22;10742;51.816;8.662;2023-04-24T09:40:34;15.80;79.90
21169;DHT22;10742;51.816;8.662;2023-04-24T09:43:37;16.00;79.90
21169;DHT22;10742;51.816;8.662;2023-04-24T09:46:40;16.00;79.50
21169;DHT22;10742;51.816;8.662;2023-04-24T09:49:43;16.10;79.30
21169;DHT22;10742;51.816;8.662;2023-04-24T09:52:55;16.20;79.40
21169;DHT22;10742;51.816;8.662;2023-04-24T09:56:08;16.30;79.40
21169;DHT22;10742;51.816;8.662;2023-04-24T09:59:17;16.50;78.90
21169;DHT22;10742;51.816;8.662;2023-04-24T10:02:20;16.60;78.50
21169;DHT22;10742;51.816;8.662;2023-04-24T10:05:24;16.80;78.20
21169;DHT22;10742;51.816;8.662;2023-04-24T10:08:33;16.90;77.50
21169;DHT22;10742;51.816;8.662;2023-04-24T10:11:37;17.00;76.90
21169;DHT22;10742;51.816;8.662;2023-04-24T10:14:39;17.10;76.90
21169;DHT22;10742;51.816;8.662;2023-04-24T10:17:45;17.10;76.50
21169;DHT22;10742;51.816;8.662;2023-04-24T10:20:54;17.20;76.60
21169;DHT22;10742;51.816;8.662;2023-04-24T10:23:57;17.20;76.60
21169;DHT22;10742;51.816;8.662;2023-04-24T10:27:02;17.30;76.10
21169;DHT22;10742;51.816;8.662;2023-04-24T10:30:06;17.30;75.40
21169;DHT22;10742;51.816;8.662;2023-04-24T10:33:08;17.30;74.90
21169;DHT22;10742;51.816;8.662;2023-04-24T10:36:13;17.30;74.50
21169;DHT22;10742;51.816;8.662;2023-04-24T10:39:17;17.30;74.00
21169;DHT22;10742;51.816;8.662;2023-04-24T10:42:20;17.20;73.70
21169;DHT22;10742;51.816;8.662;2023-04-24T10:45:24;17.10;73.70
21169;DHT22;10742;51.816;8.662;2023-04-24T10:48:27;17.00;73.70
21169;DHT22;10742;51.816;8.662;2023-04-24T10:54:52;16.70;73.70
21169;DHT22;10742;51.816;8.662;2023-04-24T10:58:04;16.60;73.90
21169;DHT22;10742;51.816;8.662;2023-04-24T11:01:07;16.50;73.90
21169;DHT22;10742;51.816;8.662;2023-04-24T11:04:10;16.40;75.10
21169;DHT22;10742;51.816;8.662;2023-04-24T11:07:13;16.30;74.70
21169;DHT22;10742;51.816;8.662;2023-04-24T11:10:29;16.20;74.90
21169;DHT22;10742;51.816;8.662;2023-04-24T11:16:56;16.10;75.50
21169;DHT22;10742;51.816;8.662;2023-04-24T11:20:07;16.00;75.60
21169;DHT22;10742;51.816;8.662;2023-04-24T11:23:17;15.90;76.30
21169;DHT22;10742;51.816;8.662;2023-04-24T11:26:23;15.80;76.70
21169;DHT22;10742;51.816;8.662;2023-04-24T11:33:02;15.70;78.80
21169;DHT22;10742;51.816;8.662;2023-04-24T11:36:05;15.60;79.30
21169;DHT22;10742;51.816;8.662;2023-04-24T11:39:08;15.60;79.30
21169;DHT22;10742;51.816;8.662;2023-04-24T11:42:12;15.50;80.10
21169;DHT22;10742;51.816;8.662;2023-04-24T11:45:22;15.40;80.80
21169;DHT22;10742;51.816;8.662;2023-04-24T11:48:24;15.40;82.10
21169;DHT22;10742;51.816;8.662;2023-04-24T11:51:27;15.40;81.70
21169;DHT22;10742;51.816;8.662;2023-04-24T11:54:32;15.30;82.30
21169;DHT22;10742;51.816;8.662;2023-04-24T11:57:34;15.30;82.70
21169;DHT22;10742;51.816;8.662;2023-04-24T12:00:38;15.30;83.00
21169;DHT22;10742;51.816;8.662;2023-04-24T12:03:41;15.30;83.20
21169;DHT22;10742;51.816;8.662;2023-04-24T12:07:02;15.30;83.70
21169;DHT22;10742;51.816;8.662;2023-04-24T12:10:05;15.30;84.90
21169;DHT22;10742;51.816;8.662;2023-04-24T12:13:10;15.30;83.90
21169;DHT22;10742;51.816;8.662;2023-04-24T12:16:13;15.20;83.60
21169;DHT22;10742;51.816;8.662;2023-04-24T12:19:23;15.20;83.70
21169;DHT22;10742;51.816;8.662;2023-04-24T12:22:26;15.00;84.30
21169;DHT22;10742;51.816;8.662;2023-04-24T12:25:32;15.00;83.30
21169;DHT22;10742;51.816;8.662;2023-04-24T12:28:39;14.90;83.40
21169;DHT22;10742;51.816;8.662;2023-04-24T12:31:41;14.80;84.20
21169;DHT22;10742;51.816;8.662;2023-04-24T12:34:44;14.80;84.00
21169;DHT22;10742;51.816;8.662;2023-04-24T12:37:46;14.70;84.00
21169;DHT22;10742;51.816;8.662;2023-04-24T12:41:02;14.60;84.20
21169;DHT22;10742;51.816;8.662;2023-04-24T12:44:10;14.60;85.60
21169;DHT22;10742;51.816;8.662;2023-04-24T12:47:12;14.60;85.40
21169;DHT22;10742;51.816;8.662;2023-04-24T12:50:15;14.50;85.20
21169;DHT22;10742;51.816;8.662;2023-04-24T12:53:18;14.50;85.40
21169;DHT22;10742;51.816;8.662;2023-04-24T12:56:20;14.50;85.60
21169;DHT22;10742;51.816;8.662;2023-04-24T12:59:23;14.50;85.80
21169;DHT22;10742;51.816;8.662;2023-04-24T13:02:28;14.50;86.00
21169;DHT22;10742;51.816;8.662;2023-04-24T13:05:34;14.50;86.40
21169;DHT22;10742;51.816;8.662;2023-04-24T13:08:37;14.50;86.30
21169;DHT22;10742;51.816;8.662;2023-04-24T13:11:39;14.50;86.60
21169;DHT22;10742;51.816;8.662;2023-04-24T13:14:42;14.50;87.40
21169;DHT22;10742;51.816;8.662;2023-04-24T13:17:44;14.50;87.50
21169;DHT22;10742;51.816;8.662;2023-04-24T13:20:47;14.50;87.70
21169;DHT22;10742;51.816;8.662;2023-04-24T13:23:49;14.40;87.60
21169;DHT22;10742;51.816;8.662;2023-04-24T13:26:55;14.50;87.60
21169;DHT22;10742;51.816;8.662;2023-04-24T13:29:59;14.50;88.30
21169;DHT22;10742;51.816;8.662;2023-04-24T13:33:04;14.50;87.90
21169;DHT22;10742;51.816;8.662;2023-04-24T13:36:10;14.40;87.90
21169;DHT22;10742;51.816;8.662;2023-04-24T13:39:14;14.40;88.20
21169;DHT22;10742;51.816;8.662;2023-04-24T13:42:19;14.40;88.50
21169;DHT22;10742;51.816;8.662;2023-04-24T13:45:23;14.40;88.80
21169;DHT22;10742;51.816;8.662;2023-04-24T13:48:26;14.50;88.80
21169;DHT22;10742;51.816;8.662;2023-04-24T13:51:29;14.50;88.80
21169;DHT22;10742;51.816;8.662;2023-04-24T13:54:31;14.50;89.00
21169;DHT22;10742;51.816;8.662;2023-04-24T13:57:35;14.50;89.30
21169;DHT22;10742;51.816;8.662;2023-04-24T14:00:37;14.50;89.30
21169;DHT22;10742;51.816;8.662;2023-04-24T14:03:40;14.60;89.30
21169;DHT22;10742;51.816;8.662;2023-04-24T14:06:43;14.60;89.30
21169;DHT22;10742;51.816;8.662;2023-04-24T14:09:46;14.60;89.50
21169;DHT22;10742;51.816;8.662;2023-04-24T14:12:48;14.60;89.10
21169;DHT22;10742;51.816;8.662;2023-04-24T14:15:51;14.70;89.20
21169;DHT22;10742;51.816;8.662;2023-04-24T14:18:54;14.70;89.30
21169;DHT22;10742;51.816;8.662;2023-04-24T14:21:57;14.70;89.00
21169;DHT22;10742;51.816;8.662;2023-04-24T14:25:00;14.70;89.10
21169;DHT22;10742;51.816;8.662;2023-04-24T14:28:03;14.70;89.00
21169;DHT22;10742;51.816;8.662;2023-04-24T14:31:05;14.70;89.10
21169;DHT22;10742;51.816;8.662;2023-04-24T14:34:08;14.70;89.10
21169;DHT22;10742;51.816;8.662;2023-04-24T14:37:11;14.70;89.00
21169;DHT22;10742;51.816;8.662;2023-04-24T14:40:13;14.70;88.80
21169;DHT22;10742;51.816;8.662;2023-04-24T14:43:22;14.70;88.80
21169;DHT22;10742;51.816;8.662;2023-04-24T14:46:24;14.60;88.90
21169;DHT22;10742;51.816;8.662;2023-04-24T14:49:27;14.60;89.00
21169;DHT22;10742;51.816;8.662;2023-04-24T14:52:30;14.60;88.70
21169;DHT22;10742;51.816;8.662;2023-04-24T14:55:32;14.60;88.50
21169;DHT22;10742;51.816;8.662;2023-04-24T14:58:36;14.70;88.40
21169;DHT22;10742;51.816;8.662;2023-04-24T15:01:39;14.70;88.40
21169;DHT22;10742;51.816;8.662;2023-04-24T15:04:41;14.60;88.40
21169;DHT22;10742;51.816;8.662;2023-04-24T15:07:44;14.60;88.40
21169;DHT22;10742;51.816;8.662;2023-04-24T15:10:47;14.70;88.30
21169;DHT22;10742;51.816;8.662;2023-04-24T15:13:50;14.60;87.80
21169;DHT22;10742;51.816;8.662;2023-04-24T15:16:53;14.70;87.60
21169;DHT22;10742;51.816;8.662;2023-04-24T15:19:55;14.70;87.60
21169;DHT22;10742;51.816;8.662;2023-04-24T15:22:58;14.70;87.30
21169;DHT22;10742;51.816;8.662;2023-04-24T15:26:02;14.60;87.30
21169;DHT22;10742;51.816;8.662;2023-04-24T15:29:05;14.60;87.90
21169;DHT22;10742;51.816;8.662;2023-04-24T15:32:07;14.60;87.10
21169;DHT22;10742;51.816;8.662;2023-04-24T15:35:11;14.60;87.20
21169;DHT22;10742;51.816;8.662;2023-04-24T15:38:16;14.60;88.10
21169;DHT22;10742;51.816;8.662;2023-04-24T15:41:18;14.60;87.80
21169;DHT22;10742;51.816;8.662;2023-04-24T15:44:21;14.60;88.00
21169;DHT22;10742;51.816;8.662;2023-04-24T15:47:24;14.60;87.80
21169;DHT22;10742;51.816;8.662;2023-04-24T15:50:27;14.60;87.80
21169;DHT22;10742;51.816;8.662;2023-04-24T15:53:30;14.50;87.80
21169;DHT22;10742;51.816;8.662;2023-04-24T15:56:33;14.50;87.80
21169;DHT22;10742;51.816;8.662;2023-04-24T15:59:38;14.50;87.90
21169;DHT22;10742;51.816;8.662;2023-04-24T16:02:41;14.50;87.80
21169;DHT22;10742;51.816;8.662;2023-04-24T16:05:43;14.50;87.60
21169;DHT22;10742;51.816;8.662;2023-04-24T16:08:46;14.50;87.30
21169;DHT22;10742;51.816;8.662;2023-04-24T16:11:48;14.40;87.20
21169;DHT22;10742;51.816;8.662;2023-04-24T16:14:51;14.40;87.40
21169;DHT22;10742;51.816;8.662;2023-04-24T16:17:53;14.40;87.60
21169;DHT22;10742;51.816;8.662;2023-04-24T16:20:56;14.40;87.70
21169;DHT22;10742;51.816;8.662;2023-04-24T16:23:58;14.40;87.90
21169;DHT22;10742;51.816;8.662;2023-04-24T16:27:01;14.40;87.50
21169;DHT22;10742;51.816;8.662;2023-04-24T16:30:05;14.40;87.40
21169;DHT22;10742;51.816;8.662;2023-04-24T16:33:07;14.30;87.20
21169;DHT22;10742;51.816;8.662;2023-04-24T16:36:12;14.30;87.20
21169;DHT22;10742;51.816;8.662;2023-04-24T16:39:14;14.40;87.10
21169;DHT22;10742;51.816;8.662;2023-04-24T16:42:17;14.40;87.10
21169;DHT22;10742;51.816;8.662;2023-04-24T16:45:19;14.30;87.00
21169;DHT22;10742;51.816;8.662;2023-04-24T16:48:22;14.30;87.10
21169;DHT22;10742;51.816;8.662;2023-04-24T16:51:24;14.30;87.00
21169;DHT22;10742;51.816;8.662;2023-04-24T16:54:29;14.40;86.90
21169;DHT22;10742;51.816;8.662;2023-04-24T16:57:31;14.40;86.80
21169;DHT22;10742;51.816;8.662;2023-04-24T17:00:34;14.30;86.80
21169;DHT22;10742;51.816;8.662;2023-04-24T17:03:37;14.40;86.50
21169;DHT22;10742;51.816;8.662;2023-04-24T17:06:40;14.30;86.10
21169;DHT22;10742;51.816;8.662;2023-04-24T17:09:43;14.30;85.90
21169;DHT22;10742;51.816;8.662;2023-04-24T17:12:46;14.30;86.00
21169;DHT22;10742;51.816;8.662;2023-04-24T17:15:48;14.30;85.80
21169;DHT22;10742;51.816;8.662;2023-04-24T17:18:51;14.30;85.80
21169;DHT22;10742;51.816;8.662;2023-04-24T17:21:53;14.30;86.00
21169;DHT22;10742;51.816;8.662;2023-04-24T17:24:56;14.30;86.00
21169;DHT22;10742;51.816;8.662;2023-04-24T17:27:58;14.30;86.40
21169;DHT22;10742;51.816;8.662;2023-04-24T17:31:01;14.30;86.00
21169;DHT22;10742;51.816;8.662;2023-04-24T17:34:03;14.30;86.10
21169;DHT22;10742;51.816;8.662;2023-04-24T17:37:25;14.30;86.00
21169;DHT22;10742;51.816;8.662;2023-04-24T17:40:46;14.30;85.70
21169;DHT22;10742;51.816;8.662;2023-04-24T17:44:08;14.30;85.50
21169;DHT22;10742;51.816;8.662;2023-04-24T17:47:29;14.30;85.60
21169;DHT22;10742;51.816;8.662;2023-04-24T17:50:32;14.30;85.60
21169;DHT22;10742;51.816;8.662;2023-04-24T17:53:34;14.30;85.80
21169;DHT22;10742;51.816;8.662;2023-04-24T17:56:37;14.30;86.00
21169;DHT22;10742;51.816;8.662;2023-04-24T17:59:39;14.30;86.00
21169;DHT22;10742;51.816;8.662;2023-04-24T18:02:42;14.30;86.00
21169;DHT22;10742;51.816;8.662;2023-04-24T18:05:44;14.30;85.80
21169;DHT22;10742;51.816;8.662;2023-04-24T18:08:47;14.30;85.70
21169;DHT22;10742;51.816;8.662;2023-04-24T18:11:49;14.30;85.50
21169;DHT22;10742;51.816;8.662;2023-04-24T18:14:52;14.20;85.20
21169;DHT22;10742;51.816;8.662;2023-04-24T18:18:01;14.20;85.10
21169;DHT22;10742;51.816;8.662;2023-04-24T18:21:03;14.20;85.60
21169;DHT22;10742;51.816;8.662;2023-04-24T18:24:06;14.10;84.60
21169;DHT22;10742;51.816;8.662;2023-04-24T18:27:08;14.10;84.60
21169;DHT22;10742;51.816;8.662;2023-04-24T18:30:11;14.10;84.60
21169;DHT22;10742;51.816;8.662;2023-04-24T18:33:15;14.00;84.60
21169;DHT22;10742;51.816;8.662;2023-04-24T18:36:18;14.00;84.60
21169;DHT22;10742;51.816;8.662;2023-04-24T18:39:20;13.90;84.70
21169;DHT22;10742;51.816;8.662;2023-04-24T18:42:24;13.90;84.80
21169;DHT22;10742;51.816;8.662;2023-04-24T18:45:26;13.90;84.80
21169;DHT22;10742;51.816;8.662;2023-04-24T18:48:29;13.80;84.90
21169;DHT22;10742;51.816;8.662;2023-04-24T18:51:32;13.80;84.90
21169;DHT22;10742;51.816;8.662;2023-04-24T18:54:39;13.80;85.10
21169;DHT22;10742;51.816;8.662;2023-04-24T18:57:42;13.70;85.20
21169;DHT22;10742;51.816;8.662;2023-04-24T19:00:44;13.70;85.40
21169;DHT22;10742;51.816;8.662;2023-04-24T19:03:47;13.70;85.70
21169;DHT22;10742;51.816;8.662;2023-04-24T19:06:50;13.60;85.70
21169;DHT22;10742;51.816;8.662;2023-04-24T19:09:52;13.60;85.70
21169;DHT22;10742;51.816;8.662;2023-04-24T19:12:55;13.60;85.80
21169;DHT22;10742;51.816;8.662;2023-04-24T19:15:58;13.60;85.90
21169;DHT22;10742;51.816;8.662;2023-04-24T19:19:00;13.50;85.80
21169;DHT22;10742;51.816;8.662;2023-04-24T19:22:03;13.50;85.80
21169;DHT22;10742;51.816;8.662;2023-04-24T19:25:06;13.50;85.90
21169;DHT22;10742;51.816;8.662;2023-04-24T19:28:09;13.50;85.90
21169;DHT22;10742;51.816;8.662;2023-04-24T19:31:12;13.50;86.00
21169;DHT22;10742;51.816;8.662;2023-04-24T19:34:14;13.40;85.80
21169;DHT22;10742;51.816;8.662;2023-04-24T19:37:17;13.40;85.80